Time;durP1;ratioP1;P1;durP2;ratioP2;P2;SDS_P1;SDS_P2;PMS_P1;PMS_P2;Temp;Humidity;BMP_temperature;BMP_pressure;BME280_temperature;BME280_humidity;BME280_pressure;Samples;Min_cycle;Max_cycle;Signal;HPM_P1;HPM_P2
2021/12/22 00:00:50;;;;;;;60.50;29.88;;;;;;;-1.83;100.00;100993.78;5083063;28;20088;-70
2021/12/22 00:03:15;;;;;;;59.97;29.92;;;;;;;-1.82;100.00;101000.91;5078011;28;20028;-70
2021/12/22 00:05:46;;;;;;;61.53;28.35;;;;;;;-1.81;100.00;101002.59;5046246;28;20024;-70
2021/12/22 00:08:13;;;;;;;65.10;30.10;;;;;;;-1.81;100.00;101002.59;5076869;28;20108;-70
2021/12/22 00:10:40;;;;;;;69.40;31.50;;;;;;;-1.82;100.00;100995.44;5069966;28;20041;-70
2021/12/22 00:13:06;;;;;;;68.40;30.60;;;;;;;-1.83;100.00;100993.78;5043419;28;20020;-70
2021/12/22 00:15:31;;;;;;;62.67;29.65;;;;;;;-1.82;100.00;100996.28;5080916;28;20032;-70
2021/12/22 00:17:57;;;;;;;64.75;30.67;;;;;;;-1.84;100.00;100992.09;5085200;28;20035;-70
2021/12/22 00:20:22;;;;;;;62.33;29.45;;;;;;;-1.84;100.00;100992.09;5096726;28;20027;-70
2021/12/22 00:22:47;;;;;;;68.78;31.20;;;;;;;-1.86;100.00;100983.28;5060981;28;20093;-70
2021/12/22 00:25:14;;;;;;;66.97;31.67;;;;;;;-1.89;100.00;100984.53;5062916;28;20396;-70
2021/12/22 00:27:40;;;;;;;63.55;30.40;;;;;;;-1.86;100.00;100992.31;5058410;28;20028;-70
2021/12/22 00:30:06;;;;;;;61.25;29.42;;;;;;;-1.89;100.00;100986.44;5048901;28;20519;-70
2021/12/22 00:32:34;;;;;;;62.22;29.42;;;;;;;-1.88;100.00;100980.75;5065951;28;20088;-70
2021/12/22 00:35:00;;;;;;;64.35;29.98;;;;;;;-1.90;100.00;100979.28;5062763;28;20116;-70
2021/12/22 00:37:27;;;;;;;61.42;29.23;;;;;;;-1.89;100.00;100979.09;5036062;28;20476;-70
2021/12/22 00:39:53;;;;;;;63.47;29.80;;;;;;;-1.88;100.00;100990.81;5068583;28;20081;-70
2021/12/22 00:42:19;;;;;;;66.60;29.95;;;;;;;-1.92;100.00;100992.25;5064069;28;20028;-70
2021/12/22 00:44:47;;;;;;;66.47;29.35;;;;;;;-1.90;100.00;100993.72;5084119;28;20472;-70
2021/12/22 00:47:12;;;;;;;56.03;27.20;;;;;;;-1.92;100.00;100992.25;5043168;28;20397;-70
2021/12/22 00:49:38;;;;;;;62.95;28.92;;;;;;;-1.91;100.00;100986.59;5094813;28;20039;-70
2021/12/22 00:52:03;;;;;;;61.17;28.67;;;;;;;-1.93;100.00;100988.69;5067093;28;20028;-70
2021/12/22 00:54:29;;;;;;;63.55;28.58;;;;;;;-1.95;100.00;100982.63;5063765;28;20066;-70
2021/12/22 00:57:01;;;;;;;65.25;29.50;;;;;;;-1.97;100.00;100965.63;5064239;28;20077;-70
2021/12/22 00:59:27;;;;;;;61.20;30.45;;;;;;;-1.94;100.00;100948.06;5082217;28;20085;-70
2021/12/22 01:01:52;;;;;;;67.03;30.60;;;;;;;-1.98;100.00;100949.50;5064962;28;20032;-69
2021/12/22 01:04:18;;;;;;;61.33;29.95;;;;;;;-2.02;100.00;100939.00;5079557;28;21282;-70
2021/12/22 01:06:44;;;;;;;63.00;29.42;;;;;;;-2.04;100.00;100935.63;5099338;28;20086;-70
2021/12/22 01:09:10;;;;;;;57.90;27.88;;;;;;;-2.04;100.00;100932.91;5066981;28;20035;-70
2021/12/22 01:11:35;;;;;;;61.05;29.70;;;;;;;-2.04;100.00;100921.19;5061333;28;20021;-70
2021/12/22 01:14:02;;;;;;;64.13;30.80;;;;;;;-2.09;100.00;100921.81;5102507;28;20028;-70
2021/12/22 01:16:27;;;;;;;59.15;28.17;;;;;;;-2.11;100.00;100923.91;5046839;28;20050;-70
2021/12/22 01:18:53;;;;;;;61.75;29.35;;;;;;;-2.13;100.00;100912.34;5064491;28;20051;-70
2021/12/22 01:21:29;;;;;;;60.95;30.40;;;;;;;-2.12;100.00;100903.16;5083093;28;20085;-70
2021/12/22 01:24:13;;;;;;;64.78;30.73;;;;;;;-2.14;100.00;100910.69;5074272;28;20035;-70
2021/12/22 01:26:44;;;;;;;57.13;27.27;;;;;;;-2.15;100.00;100909.00;5086590;28;20078;-70
2021/12/22 01:29:10;;;;;;;64.93;28.77;;;;;;;-2.18;100.00;100898.50;5095304;28;20032;-70
2021/12/22 01:31:35;;;;;;;61.33;29.73;;;;;;;-2.22;100.00;100890.97;5062500;28;20050;-70
2021/12/22 01:34:01;;;;;;;61.20;29.40;;;;;;;-2.26;100.00;100896.81;5077887;28;20036;-70
2021/12/22 01:36:26;;;;;;;65.07;28.92;;;;;;;-2.24;100.00;100899.31;5073137;28;20687;-70
2021/12/22 01:38:52;;;;;;;62.70;27.60;;;;;;;-2.27;100.00;100895.13;5062974;28;20039;-70
2021/12/22 01:41:17;;;;;;;63.60;29.38;;;;;;;-2.25;100.00;100892.22;5067001;28;20035;-70
2021/12/22 01:43:43;;;;;;;61.08;28.42;;;;;;;-2.26;100.00;100895.94;5063845;28;20035;-70
2021/12/22 01:49:09;;;;;;;62.70;29.35;;;;;;;-2.27;100.00;100900.56;5063744;28;20040;-70
2021/12/22 01:49:11;;;;;;;60.13;28.73;;;;;;;-2.28;100.00;100904.31;5072758;28;20041;-70
2021/12/22 01:51:56;;;;;;;59.97;28.55;;;;;;;-2.25;100.00;100919.41;5068514;28;20435;-70
2021/12/22 01:54:27;;;;;;;60.58;27.85;;;;;;;-2.24;100.00;100926.53;5082742;28;20028;-70
2021/12/22 01:56:53;;;;;;;56.53;27.80;;;;;;;-2.25;100.00;100933.03;5099423;28;20035;-70
2021/12/22 01:59:21;;;;;;;58.63;27.95;;;;;;;-2.25;100.00;100935.75;5051084;28;20047;-70
2021/12/22 02:01:47;;;;;;;57.85;26.77;;;;;;;-2.22;100.00;100929.91;5080583;28;20032;-70
2021/12/22 02:04:13;;;;;;;54.50;26.92;;;;;;;-2.26;100.00;100931.31;5062972;28;20026;-70
2021/12/22 02:06:42;;;;;;;56.45;27.90;;;;;;;-2.23;100.00;100928.19;5062960;28;20074;-70
2021/12/22 02:09:10;;;;;;;61.65;29.58;;;;;;;-2.25;100.00;100928.41;5081158;28;20031;-70
2021/12/22 02:11:36;;;;;;;61.17;28.40;;;;;;;-2.24;100.00;100931.97;5078699;28;20028;-70
2021/12/22 02:14:04;;;;;;;55.83;28.08;;;;;;;-2.25;100.00;100917.53;5080731;28;20094;-70
2021/12/22 02:16:34;;;;;;;59.78;27.98;;;;;;;-2.23;100.00;100922.75;5097161;28;20131;-70
2021/12/22 02:19:00;;;;;;;59.95;27.35;;;;;;;-2.25;100.00;100913.97;5067720;28;20039;-70
2021/12/22 02:21:29;;;;;;;62.05;26.60;;;;;;;-2.25;100.00;100919.41;5067299;28;20035;-70
2021/12/22 02:23:55;;;;;;;60.17;27.70;;;;;;;-2.27;100.00;100916.03;5064349;28;20032;-70
2021/12/22 02:26:31;;;;;;;56.63;26.63;;;;;;;-2.28;100.00;100920.66;5046413;28;20039;-70
2021/12/22 02:29:00;;;;;;;56.00;27.98;;;;;;;-2.28;100.00;100922.53;5078910;28;20032;-70
2021/12/22 02:31:26;;;;;;;59.28;27.05;;;;;;;-2.30;100.00;100924.63;5080660;28;20127;-70
2021/12/22 02:33:52;;;;;;;61.85;27.80;;;;;;;-2.30;100.00;100921.88;5046554;28;20056;-70
2021/12/22 02:38:45;;;;;;;56.83;26.52;;;;;;;-2.31;100.00;100918.34;5056563;28;20027;-70
2021/12/22 02:41:12;;;;;;;55.72;25.50;;;;;;;-2.34;100.00;100915.16;5065387;28;20036;-70
2021/12/22 02:43:45;;;;;;;57.67;27.15;;;;;;;-2.36;100.00;100918.09;5041954;28;20441;-70
2021/12/22 02:46:11;;;;;;;57.65;27.65;;;;;;;-2.38;100.00;100914.72;5072972;28;20024;-70
2021/12/22 02:48:36;;;;;;;55.35;25.73;;;;;;;-2.40;100.00;100913.22;5062742;28;20059;-70
2021/12/22 02:51:02;;;;;;;53.50;25.48;;;;;;;-2.42;100.00;100909.88;5081714;28;20032;-70
2021/12/22 02:53:41;;;;;;;57.13;26.65;;;;;;;-2.44;100.00;100903.81;5078209;28;20112;-70
2021/12/22 02:58:48;;;;;;;58.05;28.25;;;;;;;-2.48;100.00;100914.22;5058140;28;20029;-70
2021/12/22 03:01:41;;;;;;;56.08;26.52;;;;;;;-2.51;100.00;100911.91;5072130;28;20110;-70
2021/12/22 03:04:12;;;;;;;60.53;28.20;;;;;;;-2.52;100.00;100897.47;5081269;28;20028;-70
2021/12/22 03:06:55;;;;;;;60.58;27.67;;;;;;;-2.53;100.00;100894.97;5064304;28;20032;-70
2021/12/22 03:09:23;;;;;;;53.08;26.77;;;;;;;-2.55;100.00;100888.88;5068229;28;20387;-72
2021/12/22 03:11:49;;;;;;;59.38;26.67;;;;;;;-2.57;100.00;100897.22;5062659;28;20039;-73
2021/12/22 03:14:15;;;;;;;53.95;25.80;;;;;;;-2.58;100.00;100892.81;5054607;28;20029;-73
2021/12/22 03:16:44;;;;;;;56.65;26.83;;;;;;;-2.60;100.00;100891.34;5044167;28;20036;-72
2021/12/22 03:19:13;;;;;;;58.15;27.08;;;;;;;-2.62;100.00;100890.69;5061077;28;20362;-73
2021/12/22 03:21:41;;;;;;;56.20;26.85;;;;;;;-2.61;100.00;100895.13;5049397;28;20064;-73
2021/12/22 03:24:06;;;;;;;55.50;26.58;;;;;;;-2.62;100.00;100890.69;5098305;28;20032;-72
2021/12/22 03:26:32;;;;;;;59.03;26.80;;;;;;;-2.65;100.00;100891.94;5078574;28;20031;-73
2021/12/22 03:28:57;;;;;;;55.78;25.20;;;;;;;-2.63;100.00;100889.03;5065012;28;20338;-72
2021/12/22 03:31:23;;;;;;;56.13;25.75;;;;;;;-2.63;100.00;100889.84;5066547;28;20039;-72
2021/12/22 03:33:49;;;;;;;56.03;25.90;;;;;;;-2.62;100.00;100901.56;5060699;28;20484;-72
2021/12/22 03:36:14;;;;;;;52.67;26.95;;;;;;;-2.63;100.00;100899.91;5068585;28;20036;-72
2021/12/22 03:38:40;;;;;;;60.53;27.83;;;;;;;-2.68;100.00;100903.19;5077697;28;20035;-73
2021/12/22 03:41:07;;;;;;;55.17;26.90;;;;;;;-2.65;100.00;100907.41;5045546;28;20487;-73
2021/12/22 03:43:32;;;;;;;54.75;25.42;;;;;;;-2.65;100.00;100913.69;5069419;28;20028;-72
2021/12/22 03:45:58;;;;;;;57.40;26.25;;;;;;;-2.65;100.00;100932.72;5056979;28;20692;-72
2021/12/22 03:48:25;;;;;;;56.10;26.90;;;;;;;-2.68;100.00;100924.13;5096616;28;20540;-72
2021/12/22 03:50:50;;;;;;;54.80;25.70;;;;;;;-2.66;100.00;100927.50;5064948;28;20056;-73
2021/12/22 03:53:16;;;;;;;52.15;25.35;;;;;;;-2.66;100.00;100922.88;5043408;28;20024;-72
2021/12/22 03:55:41;;;;;;;49.67;24.85;;;;;;;-2.66;100.00;100927.50;5074305;28;20503;-72
2021/12/22 03:58:07;;;;;;;57.42;26.20;;;;;;;-2.66;100.00;100924.78;5077934;28;20036;-72
2021/12/22 04:00:34;;;;;;;51.85;25.80;;;;;;;-2.70;100.00;100916.19;5078317;28;20034;-73
2021/12/22 04:03:01;;;;;;;55.03;25.55;;;;;;;-2.68;100.00;100914.06;5080153;28;20028;-73
2021/12/22 04:05:27;;;;;;;55.78;25.35;;;;;;;-2.70;100.00;100913.47;5062580;28;20404;-72
2021/12/22 04:07:54;;;;;;;60.05;26.90;;;;;;;-2.73;100.00;100911.09;5079511;28;20028;-73
2021/12/22 04:10:21;;;;;;;60.00;25.67;;;;;;;-2.77;100.00;100904.41;5086299;28;20032;-73
2021/12/22 04:12:54;;;;;;;54.28;26.20;;;;;;;-2.80;100.00;100902.06;5064361;28;20036;-72
2021/12/22 04:15:20;;;;;;;56.53;25.98;;;;;;;-2.83;100.00;100894.31;5079738;28;20021;-72
2021/12/22 04:17:45;;;;;;;55.53;26.50;;;;;;;-2.87;100.00;100887.56;5081795;28;20028;-73
2021/12/22 04:20:11;;;;;;;59.13;26.60;;;;;;;-2.88;100.00;100894.06;5081770;28;20091;-73
2021/12/22 04:22:37;;;;;;;56.75;27.02;;;;;;;-2.85;100.00;100899.09;5088437;28;24415;-73
2021/12/22 04:25:05;;;;;;;53.75;26.95;;;;;;;-2.89;100.00;100886.94;5073261;28;20033;-72
2021/12/22 04:27:30;;;;;;;63.88;27.48;;;;;;;-2.91;100.00;100881.69;5077912;28;20439;-73
2021/12/22 04:29:56;;;;;;;56.53;27.27;;;;;;;-2.93;100.00;100884.59;5074117;28;20087;-73
2021/12/22 04:32:21;;;;;;;54.95;26.20;;;;;;;-2.90;100.00;100898.84;5081446;28;20028;-73
2021/12/22 04:34:47;;;;;;;59.33;25.77;;;;;;;-2.88;100.00;100896.78;5081931;28;20024;-72
2021/12/22 04:37:12;;;;;;;56.72;26.48;;;;;;;-2.89;100.00;100889.66;5080312;28;20024;-73
2021/12/22 04:39:37;;;;;;;53.75;26.42;;;;;;;-2.92;100.00;100886.31;5080162;28;20072;-72
2021/12/22 04:42:03;;;;;;;55.25;26.48;;;;;;;-2.88;100.00;100888.63;5095752;28;20028;-72
2021/12/22 04:44:29;;;;;;;57.90;26.45;;;;;;;-2.88;100.00;100885.91;5064197;28;20035;-72
2021/12/22 04:46:54;;;;;;;56.42;27.00;;;;;;;-2.88;100.00;100886.75;5077658;28;20028;-72
2021/12/22 04:49:20;;;;;;;61.58;27.58;;;;;;;-2.90;100.00;100871.66;5072442;28;20077;-72
2021/12/22 04:51:51;;;;;;;57.80;26.90;;;;;;;-2.89;100.00;100873.34;5084610;28;20052;-73
2021/12/22 04:54:32;;;;;;;55.72;25.85;;;;;;;-2.89;100.00;100874.19;5052106;28;20023;-73
2021/12/22 04:56:57;;;;;;;60.97;27.75;;;;;;;-2.90;100.00;100871.66;5083418;28;20112;-72
2021/12/22 04:59:23;;;;;;;61.95;27.58;;;;;;;-2.89;100.00;100867.94;5051051;28;20032;-73
2021/12/22 05:01:49;;;;;;;62.80;27.52;;;;;;;-2.90;100.00;100861.63;5078135;28;20024;-72
2021/12/22 05:04:14;;;;;;;61.80;27.75;;;;;;;-2.89;100.00;100854.34;5089155;28;20031;-72
2021/12/22 05:06:40;;;;;;;65.93;28.90;;;;;;;-2.89;100.00;100857.88;5098618;28;20028;-72
2021/12/22 05:09:06;;;;;;;66.13;28.80;;;;;;;-2.89;100.00;100865.22;5082515;28;20060;-72
2021/12/22 05:11:32;;;;;;;67.40;29.92;;;;;;;-2.92;100.00;100861.84;5062511;28;20377;-72
2021/12/22 05:13:57;;;;;;;61.30;27.67;;;;;;;-2.91;100.00;100857.25;5049629;28;20081;-72
2021/12/22 05:16:23;;;;;;;65.18;28.52;;;;;;;-2.92;100.00;100850.97;5062933;28;20016;-72
2021/12/22 05:19:09;;;;;;;63.10;29.10;;;;;;;-2.90;100.00;100849.91;5064718;28;20396;-72
2021/12/22 05:21:35;;;;;;;62.95;28.02;;;;;;;-2.93;100.00;100835.69;5070274;28;20032;-72
2021/12/22 05:24:00;;;;;;;64.50;28.42;;;;;;;-2.90;100.00;100845.31;5036879;28;20617;-72
2021/12/22 05:26:26;;;;;;;61.15;27.23;;;;;;;-2.93;100.00;100843.81;5046971;28;20028;-72
2021/12/22 05:28:51;;;;;;;59.38;27.17;;;;;;;-2.93;100.00;100851.16;5047412;28;20024;-72
2021/12/22 05:31:17;;;;;;;60.50;27.33;;;;;;;-2.92;100.00;100853.69;5063115;28;20051;-72
2021/12/22 05:33:42;;;;;;;65.90;28.45;;;;;;;-2.92;100.00;100848.25;5083855;28;20039;-72
2021/12/22 05:36:08;;;;;;;55.25;25.77;;;;;;;-2.91;100.00;100851.81;5049261;28;20028;-72
2021/12/22 05:38:33;;;;;;;63.28;28.45;;;;;;;-2.92;100.00;100856.41;5061902;28;20400;-73
2021/12/22 05:40:59;;;;;;;65.18;28.35;;;;;;;-2.91;100.00;100862.66;5037683;28;20054;-72
2021/12/22 05:43:24;;;;;;;60.67;27.73;;;;;;;-2.90;100.00;100877.94;5035021;28;20028;-73
2021/12/22 05:45:50;;;;;;;61.05;27.75;;;;;;;-2.90;100.00;100883.38;5080967;28;20495;-72
2021/12/22 05:48:16;;;;;;;60.20;27.05;;;;;;;-2.89;100.00;100878.78;5062495;28;20032;-73
2021/12/22 05:50:45;;;;;;;62.70;27.02;;;;;;;-2.87;100.00;100873.97;5078974;28;20050;-73
2021/12/22 05:53:11;;;;;;;64.93;30.05;;;;;;;-2.88;100.00;100869.59;5065009;28;20028;-72
2021/12/22 05:55:36;;;;;;;64.07;29.10;;;;;;;-2.87;100.00;100887.56;5050413;28;20030;-72
2021/12/22 05:58:02;;;;;;;57.15;27.23;;;;;;;-2.83;100.00;100878.00;5047003;28;20043;-73
2021/12/22 06:00:27;;;;;;;54.85;27.48;;;;;;;-2.86;100.00;100884.66;5067195;28;20441;-72
2021/12/22 06:02:53;;;;;;;63.97;28.17;;;;;;;-2.85;100.00;100872.75;5064549;28;20029;-72
2021/12/22 06:05:19;;;;;;;62.63;28.35;;;;;;;-2.84;100.00;100884.47;5078024;28;20035;-73
2021/12/22 06:07:45;;;;;;;65.93;29.65;;;;;;;-2.81;100.00;100881.38;5080202;28;20028;-72
2021/12/22 06:10:11;;;;;;;66.57;29.63;;;;;;;-2.81;100.00;100878.66;5065801;28;20544;-72
2021/12/22 06:12:36;;;;;;;62.10;29.30;;;;;;;-2.79;100.00;100890.16;5061328;28;20020;-73
2021/12/22 06:15:02;;;;;;;64.05;28.88;;;;;;;-2.81;100.00;100897.69;5062893;28;20024;-72
2021/12/22 06:17:28;;;;;;;68.82;29.42;;;;;;;-2.79;100.00;100884.72;5065371;28;20033;-72
2021/12/22 06:19:53;;;;;;;63.97;28.60;;;;;;;-2.81;100.00;100886.81;5062269;28;20028;-72
2021/12/22 06:22:19;;;;;;;65.38;29.65;;;;;;;-2.81;100.00;100898.53;5078260;28;20518;-72
2021/12/22 06:24:45;;;;;;;65.10;29.20;;;;;;;-2.80;100.00;100897.47;5063452;28;20024;-73
2021/12/22 06:27:10;;;;;;;67.10;30.48;;;;;;;-2.78;100.00;100898.13;5096934;28;20468;-72
2021/12/22 06:29:36;;;;;;;65.03;30.05;;;;;;;-2.76;100.00;100897.91;5082073;28;20576;-73
2021/12/22 06:32:01;;;;;;;63.20;28.67;;;;;;;-2.74;100.00;100899.41;5080255;28;20082;-73
2021/12/22 06:34:27;;;;;;;64.82;29.95;;;;;;;-2.72;100.00;100900.03;5060388;28;20030;-73
2021/12/22 06:36:52;;;;;;;61.67;29.08;;;;;;;-2.72;100.00;100902.75;5063136;28;20034;-72
2021/12/22 06:39:18;;;;;;;61.80;29.38;;;;;;;-2.69;100.00;100898.81;5049285;28;20028;-72
2021/12/22 06:41:44;;;;;;;64.70;29.92;;;;;;;-2.68;100.00;100902.38;5077422;28;20028;-73
2021/12/22 06:44:10;;;;;;;62.28;29.70;;;;;;;-2.68;100.00;100903.19;5076922;28;20748;-72
2021/12/22 06:46:35;;;;;;;61.45;28.75;;;;;;;-2.67;100.00;100904.03;5096727;28;20027;-72
2021/12/22 06:49:01;;;;;;;68.00;30.38;;;;;;;-2.65;100.00;100907.41;5096653;28;20024;-72
2021/12/22 06:51:26;;;;;;;63.47;29.48;;;;;;;-2.63;100.00;100908.06;5064791;28;20377;-72
2021/12/22 06:53:52;;;;;;;68.85;29.45;;;;;;;-2.62;100.00;100907.88;5079889;28;20032;-72
2021/12/22 06:56:17;;;;;;;61.10;29.13;;;;;;;-2.64;100.00;100918.09;5063982;28;20396;-73
2021/12/22 06:58:43;;;;;;;63.55;29.33;;;;;;;-2.63;100.00;100914.34;5082744;28;20032;-73
2021/12/22 07:01:08;;;;;;;62.55;28.92;;;;;;;-2.62;100.00;100916.03;5087796;28;20040;-72
2021/12/22 07:03:34;;;;;;;65.18;29.70;;;;;;;-2.60;100.00;100930.25;5061812;28;20020;-72
2021/12/22 07:05:59;;;;;;;68.30;30.77;;;;;;;-2.60;100.00;100927.53;5075849;28;20032;-72
2021/12/22 07:08:25;;;;;;;64.00;31.85;;;;;;;-2.59;100.00;100928.38;5055972;28;20396;-73
2021/12/22 07:10:50;;;;;;;65.43;29.92;;;;;;;-2.58;100.00;100922.75;5057501;28;20043;-72
2021/12/22 07:13:16;;;;;;;65.60;28.98;;;;;;;-2.58;100.00;100924.63;5047759;28;20025;-72
2021/12/22 07:15:45;;;;;;;63.70;29.48;;;;;;;-2.56;100.00;100923.41;5062522;28;20028;-72
2021/12/22 07:18:11;;;;;;;61.13;29.38;;;;;;;-2.55;100.00;100925.06;5044298;28;20460;-73
2021/12/22 07:20:36;;;;;;;67.57;30.60;;;;;;;-2.54;100.00;100921.28;5066070;28;20028;-73
2021/12/22 07:23:02;;;;;;;60.08;28.00;;;;;;;-2.54;100.00;100924.00;5075847;28;20086;-72
2021/12/22 07:25:28;;;;;;;68.38;30.80;;;;;;;-2.50;100.00;100910.88;5050559;28;20044;-72
2021/12/22 07:27:53;;;;;;;70.47;30.60;;;;;;;-2.50;100.00;100900.84;5068966;28;20028;-72
2021/12/22 07:30:19;;;;;;;63.70;29.38;;;;;;;-2.51;100.00;100911.91;5075987;28;20412;-73
2021/12/22 07:32:45;;;;;;;63.95;29.25;;;;;;;-2.51;100.00;100917.34;5080280;28;20500;-72
2021/12/22 07:35:18;;;;;;;61.28;29.70;;;;;;;-2.52;100.00;100926.53;5067641;28;20049;-72
2021/12/22 07:37:47;;;;;;;;;;;;;;;-2.52;100.00;100919.22;5075427;28;20028;-72
2021/12/22 07:40:16;;;;;;;62.83;28.75;;;;;;;-2.54;100.00;100926.72;5049253;28;19953;-72
2021/12/22 07:42:42;;;;;;;67.60;29.27;;;;;;;-2.51;100.00;100922.78;5083783;28;20107;-73
2021/12/22 07:45:08;;;;;;;63.58;29.42;;;;;;;-2.52;100.00;100918.38;5083238;28;20063;-72
2021/12/22 07:47:33;;;;;;;64.22;30.67;;;;;;;-2.53;100.00;100916.72;5064944;28;20039;-73
2021/12/22 07:49:59;;;;;;;64.45;29.27;;;;;;;-2.54;100.00;100910.41;5073574;28;20119;-73
2021/12/22 07:52:27;;;;;;;63.67;30.50;;;;;;;-2.53;100.00;100922.16;5041654;28;20027;-72
2021/12/22 07:54:53;;;;;;;67.82;29.38;;;;;;;-2.50;100.00;100922.59;5065698;28;20039;-72
2021/12/22 07:57:18;;;;;;;62.00;29.35;;;;;;;-2.47;100.00;100930.34;5102001;28;20036;-73
2021/12/22 07:59:44;;;;;;;69.72;30.13;;;;;;;-2.46;100.00;100928.47;5083484;28;20471;-73
2021/12/22 08:02:10;;;;;;;66.35;31.02;;;;;;;-2.44;100.00;100922.84;5034657;28;20060;-73
2021/12/22 08:04:36;;;;;;;61.67;28.75;;;;;;;-2.45;100.00;100924.72;5083514;28;20024;-73
2021/12/22 08:07:02;;;;;;;68.20;30.60;;;;;;;-2.44;100.00;100925.56;5066577;28;20033;-73
2021/12/22 08:09:28;;;;;;;65.18;31.13;;;;;;;-2.43;100.00;100922.63;5081998;28;20055;-72
2021/12/22 08:11:54;;;;;;;62.28;29.75;;;;;;;-2.43;100.00;100921.78;5081342;28;20015;-72
2021/12/22 08:14:22;;;;;;;65.07;29.48;;;;;;;-2.41;100.00;100917.84;5080934;28;20027;-73
2021/12/22 08:16:48;;;;;;;67.82;31.25;;;;;;;-2.41;100.00;100919.72;5089221;28;20549;-73
2021/12/22 08:19:13;;;;;;;65.43;30.10;;;;;;;-2.41;100.00;100912.41;5067821;28;20031;-72
2021/12/22 08:21:39;;;;;;;66.50;30.35;;;;;;;-2.41;100.00;100920.56;5064108;28;20062;-73
2021/12/22 08:24:04;;;;;;;65.30;30.48;;;;;;;-2.39;100.00;100923.94;5065841;28;20066;-73
2021/12/22 08:26:30;;;;;;;64.45;31.67;;;;;;;-2.40;100.00;100922.22;5063710;28;20040;-73
2021/12/22 08:28:56;;;;;;;64.97;30.88;;;;;;;-2.36;100.00;100917.25;5063961;28;20028;-73
2021/12/22 08:31:21;;;;;;;61.78;29.23;;;;;;;-2.37;100.00;100908.22;5089615;28;20060;-73
2021/12/22 08:33:47;;;;;;;62.45;30.02;;;;;;;-2.38;100.00;100916.59;5080879;28;20035;-72
2021/12/22 08:39:04;;;;;;;68.40;31.95;;;;;;;-2.40;100.00;100905.06;5052264;28;20047;-72
2021/12/22 08:41:31;;;;;;;74.75;32.05;;;;;;;-2.41;100.00;100903.41;5076720;28;20028;-72
2021/12/22 08:43:58;;;;;;;68.80;32.67;;;;;;;-2.40;100.00;100888.75;5048479;28;20020;-72
2021/12/22 08:46:24;;;;;;;66.22;30.77;;;;;;;-2.38;100.00;100898.41;5052157;28;20116;-73
2021/12/22 08:48:49;;;;;;;63.65;29.77;;;;;;;-2.40;100.00;100905.06;5065155;28;20024;-72
2021/12/22 08:51:15;;;;;;;69.72;32.17;;;;;;;-2.38;100.00;100908.44;5064953;28;20031;-72
2021/12/22 08:53:41;;;;;;;69.20;31.67;;;;;;;-2.37;100.00;100904.66;5064875;28;20051;-72
2021/12/22 08:56:06;;;;;;;67.22;30.27;;;;;;;-2.34;100.00;100912.44;5064611;28;20027;-73
2021/12/22 08:58:32;;;;;;;66.45;31.77;;;;;;;-2.34;100.00;100913.28;5104204;28;20036;-72
2021/12/22 09:00:57;;;;;;;64.60;30.08;;;;;;;-2.33;100.00;100914.13;5068617;28;20235;-73
2021/12/22 09:03:22;;;;;;;66.82;31.00;;;;;;;-2.32;100.00;100904.91;5077264;28;20025;-72
2021/12/22 09:05:48;;;;;;;64.88;30.33;;;;;;;-2.31;100.00;100912.06;5098107;28;20484;-72
2021/12/22 09:08:13;;;;;;;62.97;30.33;;;;;;;-2.27;100.00;100918.78;5047346;28;20031;-73
2021/12/22 09:10:39;;;;;;;64.45;30.15;;;;;;;-2.24;100.00;100926.53;5050244;28;20057;-73
2021/12/22 09:13:04;;;;;;;68.90;31.05;;;;;;;-2.24;100.00;100926.53;5067622;28;20097;-72
2021/12/22 09:15:30;;;;;;;66.63;30.05;;;;;;;-2.21;100.00;100917.97;5064560;28;20089;-73
2021/12/22 09:17:55;;;;;;;71.28;32.40;;;;;;;-2.19;100.00;100918.59;5065263;28;20082;-72
2021/12/22 09:20:21;;;;;;;65.63;31.08;;;;;;;-2.19;100.00;100913.16;5084643;28;20480;-72
2021/12/22 09:22:46;;;;;;;68.25;31.25;;;;;;;-2.16;100.00;100911.94;5077790;28;20036;-72
2021/12/22 09:25:12;;;;;;;65.03;31.13;;;;;;;-2.15;100.00;100914.44;5063211;28;20107;-72
2021/12/22 09:27:38;;;;;;;64.07;31.20;;;;;;;-2.16;100.00;100912.75;5058470;28;20082;-73
2021/12/22 09:30:05;;;;;;;63.35;31.45;;;;;;;-2.13;100.00;100914.25;5072895;28;20122;-73
2021/12/22 09:32:30;;;;;;;65.30;31.60;;;;;;;-2.13;100.00;100908.81;5083643;28;20033;-72
2021/12/22 09:34:55;;;;;;;66.57;31.65;;;;;;;-2.10;100.00;100911.94;5065542;28;20606;-72
2021/12/22 09:37:21;;;;;;;74.80;38.37;;;;;;;-2.10;100.00;100911.13;5045512;28;20384;-72
2021/12/22 09:39:46;;;;;;;67.75;33.20;;;;;;;-2.08;100.00;100911.78;5087731;28;20032;-72
2021/12/22 09:42:12;;;;;;;69.82;31.20;;;;;;;-2.06;100.00;100901.53;5065297;28;20023;-72
2021/12/22 09:44:44;;;;;;;66.05;31.95;;;;;;;-2.04;100.00;100911.16;5049749;28;20032;-73
2021/12/22 09:47:11;;;;;;;65.03;31.17;;;;;;;-2.02;100.00;100902.78;5083451;28;20161;-73
2021/12/22 09:52:21;;;;;;;69.82;34.28;;;;;;;-1.97;100.00;100891.31;5076239;28;20969;-70
2021/12/22 09:54:52;;;;;;;69.70;32.78;;;;;;;-1.95;100.00;100891.91;5053577;28;20033;-70
2021/12/22 09:57:18;;;;;;;67.95;31.70;;;;;;;-1.93;100.00;100895.28;5099526;28;20435;-70
2021/12/22 09:59:50;;;;;;;66.53;31.83;;;;;;;-1.93;100.00;100890.69;5062118;28;20031;-70
2021/12/22 10:02:16;;;;;;;;;;;;;;;-1.89;100.00;100894.69;5081461;28;20085;-70
2021/12/22 10:04:42;;;;;;;69.90;33.03;;;;;;;-1.89;100.00;100891.97;5096808;28;19915;-70
2021/12/22 10:07:08;;;;;;;68.75;31.27;;;;;;;-1.87;100.00;100883.59;5061990;28;20031;-70
2021/12/22 10:09:44;;;;;;;68.45;31.17;;;;;;;-1.87;100.00;100883.59;5046931;28;20034;-70
2021/12/22 10:12:14;;;;;;;66.25;32.03;;;;;;;-1.88;100.00;100890.09;5081802;28;20039;-70
2021/12/22 10:14:47;;;;;;;63.33;31.63;;;;;;;-1.86;100.00;100880.66;5062404;28;20028;-70
2021/12/22 10:17:25;;;;;;;61.92;30.42;;;;;;;-1.84;100.00;100875.00;5080734;28;20028;-70
2021/12/22 10:19:53;;;;;;;65.00;31.55;;;;;;;-1.81;100.00;100877.34;5083404;28;20024;-70
2021/12/22 10:22:18;;;;;;;63.53;30.73;;;;;;;-1.84;100.00;100875.88;5066944;28;20107;-70
2021/12/22 10:24:46;;;;;;;66.82;31.05;;;;;;;-1.84;100.00;100873.16;5051690;28;20058;-70
2021/12/22 10:27:22;;;;;;;68.43;32.30;;;;;;;-1.83;100.00;100877.53;5062283;28;20032;-70
2021/12/22 10:29:48;;;;;;;65.20;31.42;;;;;;;-1.79;100.00;100886.13;5077477;28;20384;-70
2021/12/22 10:32:15;;;;;;;63.08;30.85;;;;;;;-1.74;100.00;100878.19;5065132;28;20040;-70
2021/12/22 10:34:58;;;;;;;64.63;32.00;;;;;;;-1.68;100.00;100868.38;5061826;28;20403;-70
2021/12/22 10:37:33;;;;;;;60.78;29.80;;;;;;;-1.67;100.00;100876.34;5077730;28;20024;-70
2021/12/22 10:39:58;;;;;;;73.10;31.52;;;;;;;-1.64;100.00;100873.22;5067255;28;20043;-70
2021/12/22 10:42:24;;;;;;;67.18;32.28;;;;;;;-1.62;100.00;100883.88;5064705;28;20392;-70
2021/12/22 10:44:49;;;;;;;66.65;31.70;;;;;;;-1.58;100.00;100861.50;5062810;28;20044;-70
2021/12/22 10:47:19;;;;;;;63.78;29.35;;;;;;;-1.54;100.00;100851.00;5079527;28;20032;-70
2021/12/22 10:50:06;;;;;;;68.60;32.47;;;;;;;-1.51;100.00;100839.69;5046779;28;20028;-70
2021/12/22 10:52:32;;;;;;;64.97;30.75;;;;;;;-1.50;100.00;100833.22;5062337;28;20028;-73
2021/12/22 10:55:11;;;;;;;62.78;31.27;;;;;;;-1.45;100.00;100827.13;5053380;28;20037;-72
2021/12/22 10:57:37;;;;;;;63.95;31.75;;;;;;;-1.41;100.00;100831.97;5080907;28;20028;-72
2021/12/22 11:00:19;;;;;;;68.93;33.15;;;;;;;-1.46;100.00;100836.38;5061228;28;20092;-73
2021/12/22 11:03:00;;;;;;;68.40;32.53;;;;;;;-1.42;100.00;100845.78;5080080;28;20040;-73
2021/12/22 11:05:29;;;;;;;69.03;32.03;;;;;;;-1.37;100.00;100835.94;5077339;28;20020;-72
2021/12/22 11:07:54;;;;;;;60.05;30.38;;;;;;;-1.36;100.00;100836.81;5067699;28;20060;-72
2021/12/22 11:10:27;;;;;;;63.88;30.30;;;;;;;-1.33;100.00;100822.78;5079057;28;20036;-72
2021/12/22 11:13:12;;;;;;;68.75;31.80;;;;;;;-1.31;100.00;100819.81;5079157;28;20103;-72